sensor_id;sensor_type;location;lat;lon;timestamp;pressure;altitude;pressure_sealevel;temperature;humidity
51123;BME280;37162;41.724;13.346;2023-02-28T00:02:14;96524.56;;;16.31;62.98
51123;BME280;37162;41.724;13.346;2023-02-28T00:04:42;96528.88;;;16.32;62.89
51123;BME280;37162;41.724;13.346;2023-02-28T00:07:08;96525.38;;;16.32;62.93
51123;BME280;37162;41.724;13.346;2023-02-28T00:09:34;96521.91;;;16.31;62.83
51123;BME280;37162;41.724;13.346;2023-02-28T00:11:59;96515.72;;;16.31;62.84
51123;BME280;37162;41.724;13.346;2023-02-28T00:14:24;96514.91;;;16.30;62.84
51123;BME280;37162;41.724;13.346;2023-02-28T00:16:50;96508.72;;;16.30;62.93
51123;BME280;37162;41.724;13.346;2023-02-28T00:19:15;96508.72;;;16.30;62.98
51123;BME280;37162;41.724;13.346;2023-02-28T00:21:41;96511.41;;;16.30;63.10
51123;BME280;37162;41.724;13.346;2023-02-28T00:24:06;96514.09;;;16.30;63.10
51123;BME280;37162;41.724;13.346;2023-02-28T00:26:32;96519.47;;;16.30;63.13
51123;BME280;37162;41.724;13.346;2023-02-28T00:28:57;96519.47;;;16.30;63.04
51123;BME280;37162;41.724;13.346;2023-02-28T00:31:23;96517.84;;;16.29;63.00
51123;BME280;37162;41.724;13.346;2023-02-28T00:33:48;96512.94;;;16.26;62.91
51123;BME280;37162;41.724;13.346;2023-02-28T00:36:14;96522.13;;;16.30;62.90
51123;BME280;37162;41.724;13.346;2023-02-28T00:38:40;96520.28;;;16.30;62.75
51123;BME280;37162;41.724;13.346;2023-02-28T00:41:06;96524.81;;;16.30;62.83
51123;BME280;37162;41.724;13.346;2023-02-28T00:43:33;96532.88;;;16.30;62.76
51123;BME280;37162;41.724;13.346;2023-02-28T00:45:58;96536.59;;;16.29;62.90
51123;BME280;37162;41.724;13.346;2023-02-28T00:48:24;96536.59;;;16.29;62.78
51123;BME280;37162;41.724;13.346;2023-02-28T00:50:50;96541.16;;;16.28;62.83
51123;BME280;37162;41.724;13.346;2023-02-28T00:53:15;96538.47;;;16.28;62.79
51123;BME280;37162;41.724;13.346;2023-02-28T00:55:40;96541.16;;;16.28;62.65
51123;BME280;37162;41.724;13.346;2023-02-28T00:58:06;96530.44;;;16.28;62.73
51123;BME280;37162;41.724;13.346;2023-02-28T01:00:31;96528.56;;;16.29;62.75
51123;BME280;37162;41.724;13.346;2023-02-28T01:02:56;96523.19;;;16.29;62.72
51123;BME280;37162;41.724;13.346;2023-02-28T01:05:22;96527.75;;;16.28;62.65
51123;BME280;37162;41.724;13.346;2023-02-28T01:07:47;96521.66;;;16.21;62.80
51123;BME280;37162;41.724;13.346;2023-02-28T01:10:13;96527.75;;;16.28;62.92
51123;BME280;37162;41.724;13.346;2023-02-28T01:12:38;96523.19;;;16.29;62.80
51123;BME280;37162;41.724;13.346;2023-02-28T01:15:04;96514.44;;;16.22;62.87
51123;BME280;37162;41.724;13.346;2023-02-28T01:17:30;96507.69;;;16.19;62.81
51123;BME280;37162;41.724;13.346;2023-02-28T01:19:55;96506.19;;;16.23;63.14
51123;BME280;37162;41.724;13.346;2023-02-28T01:22:21;96507.13;;;16.29;63.06
51123;BME280;37162;41.724;13.346;2023-02-28T01:24:47;96507.69;;;16.31;63.28
51123;BME280;37162;41.724;13.346;2023-02-28T01:27:13;96514.91;;;16.30;63.25
51123;BME280;37162;41.724;13.346;2023-02-28T01:29:38;96505.81;;;16.31;63.38
51123;BME280;37162;41.724;13.346;2023-02-28T01:32:04;96501.97;;;16.27;63.46
51123;BME280;37162;41.724;13.346;2023-02-28T01:34:29;96508.72;;;16.30;63.38
51123;BME280;37162;41.724;13.346;2023-02-28T01:36:55;96506.06;;;16.30;63.04
51123;BME280;37162;41.724;13.346;2023-02-28T01:39:20;96501.50;;;16.30;62.92
51123;BME280;37162;41.724;13.346;2023-02-28T01:41:46;96498.81;;;16.30;63.15
51123;BME280;37162;41.724;13.346;2023-02-28T01:47:15;96500.13;;;16.28;62.93
51123;BME280;37162;41.724;13.346;2023-02-28T01:49:40;96499.53;;;16.26;63.06
51123;BME280;37162;41.724;13.346;2023-02-28T01:52:07;96483.91;;;16.23;62.95
51123;BME280;37162;41.724;13.346;2023-02-28T01:54:34;96482.28;;;16.22;62.97
51123;BME280;37162;41.724;13.346;2023-02-28T01:57:07;96495.56;;;16.28;62.82
51123;BME280;37162;41.724;13.346;2023-02-28T01:59:42;96494.75;;;16.28;62.80
51123;BME280;37162;41.724;13.346;2023-02-28T02:02:12;96494.75;;;16.28;62.89
51123;BME280;37162;41.724;13.346;2023-02-28T02:05:00;96495.56;;;16.28;62.75
51123;BME280;37162;41.724;13.346;2023-02-28T02:07:31;96489.63;;;16.26;62.88
51123;BME280;37162;41.724;13.346;2023-02-28T02:10:35;96489.63;;;16.26;62.86
51123;BME280;37162;41.724;13.346;2023-02-28T02:18:34;96494.16;;;16.26;62.74
51123;BME280;37162;41.724;13.346;2023-02-28T02:29:12;96487.75;;;16.27;62.72
51123;BME280;37162;41.724;13.346;2023-02-28T02:37:48;96493.34;;;16.25;62.56
51123;BME280;37162;41.724;13.346;2023-02-28T02:40:20;96494.16;;;16.26;62.66
51123;BME280;37162;41.724;13.346;2023-02-28T02:45:48;96497.91;;;16.25;62.61
51123;BME280;37162;41.724;13.346;2023-02-28T02:48:20;96486.38;;;16.24;62.65
51123;BME280;37162;41.724;13.346;2023-02-28T02:50:53;96475.66;;;16.24;62.59
51123;BME280;37162;41.724;13.346;2023-02-28T02:53:23;96483.91;;;16.23;62.79
51123;BME280;37162;41.724;13.346;2023-02-28T02:55:52;96482.06;;;16.23;62.73
51123;BME280;37162;41.724;13.346;2023-02-28T02:58:22;96483.91;;;16.23;62.54
51123;BME280;37162;41.724;13.346;2023-02-28T03:00:56;96473.19;;;16.23;62.67
51123;BME280;37162;41.724;13.346;2023-02-28T03:03:23;96474.25;;;16.22;62.58
51123;BME280;37162;41.724;13.346;2023-02-28T03:05:56;96469.69;;;16.22;62.63
51123;BME280;37162;41.724;13.346;2023-02-28T03:08:22;96467.81;;;16.23;62.83
51123;BME280;37162;41.724;13.346;2023-02-28T03:10:52;96470.19;;;16.19;62.61
51123;BME280;37162;41.724;13.346;2023-02-28T03:13:41;96464.56;;;16.21;62.61
51123;BME280;37162;41.724;13.346;2023-02-28T03:24:26;96471.56;;;16.22;62.79
51123;BME280;37162;41.724;13.346;2023-02-28T03:26:58;96465.13;;;16.23;63.15
51123;BME280;37162;41.724;13.346;2023-02-28T03:29:39;96464.34;;;16.22;63.28
51123;BME280;37162;41.724;13.346;2023-02-28T03:32:19;96471.34;;;16.23;63.41
51123;BME280;37162;41.724;13.346;2023-02-28T03:35:20;96464.34;;;16.22;63.11
51123;BME280;37162;41.724;13.346;2023-02-28T03:37:50;96465.13;;;16.23;63.06
51123;BME280;37162;41.724;13.346;2023-02-28T03:40:21;96460.28;;;16.20;62.89
51123;BME280;37162;41.724;13.346;2023-02-28T03:42:51;96461.66;;;16.22;62.89
51123;BME280;37162;41.724;13.346;2023-02-28T03:45:23;96463.31;;;16.23;62.76
51123;BME280;37162;41.724;13.346;2023-02-28T03:47:53;96465.13;;;16.23;62.74
51123;BME280;37162;41.724;13.346;2023-02-28T03:50:20;96459.78;;;16.23;62.76
51123;BME280;37162;41.724;13.346;2023-02-28T03:52:55;96460.63;;;16.23;62.83
51123;BME280;37162;41.724;13.346;2023-02-28T03:55:30;96460.03;;;16.21;62.90
51123;BME280;37162;41.724;13.346;2023-02-28T04:01:07;96453.84;;;16.21;62.69
51123;BME280;37162;41.724;13.346;2023-02-28T04:03:38;96465.38;;;16.21;62.84
51123;BME280;37162;41.724;13.346;2023-02-28T04:06:06;96456.53;;;16.21;62.77
51123;BME280;37162;41.724;13.346;2023-02-28T04:08:32;96450.72;;;16.12;62.85
51123;BME280;37162;41.724;13.346;2023-02-28T04:11:04;96463.75;;;16.20;62.82
51123;BME280;37162;41.724;13.346;2023-02-28T04:13:32;96464.81;;;16.19;62.59
51123;BME280;37162;41.724;13.346;2023-02-28T04:15:57;96469.13;;;16.20;62.70
51123;BME280;37162;41.724;13.346;2023-02-28T04:18:23;96465.63;;;16.20;62.53
51123;BME280;37162;41.724;13.346;2023-02-28T04:20:48;96471.81;;;16.20;62.71
51123;BME280;37162;41.724;13.346;2023-02-28T04:23:13;96470.19;;;16.19;62.67
51123;BME280;37162;41.724;13.346;2023-02-28T04:25:39;96475.28;;;16.21;62.76
51123;BME280;37162;41.724;13.346;2023-02-28T04:28:06;96471.00;;;16.20;62.94
51123;BME280;37162;41.724;13.346;2023-02-28T04:30:31;96477.97;;;16.21;62.83
51123;BME280;37162;41.724;13.346;2023-02-28T04:32:58;96474.47;;;16.20;62.82
51123;BME280;37162;41.724;13.346;2023-02-28T04:35:23;96474.47;;;16.20;62.93
51123;BME280;37162;41.724;13.346;2023-02-28T04:37:48;96479.84;;;16.20;62.67
51123;BME280;37162;41.724;13.346;2023-02-28T04:40:14;96478.22;;;16.19;62.64
51123;BME280;37162;41.724;13.346;2023-02-28T04:42:39;96481.72;;;16.20;62.52
51123;BME280;37162;41.724;13.346;2023-02-28T04:45:05;96483.59;;;16.19;62.47
51123;BME280;37162;41.724;13.346;2023-02-28T04:47:31;96487.06;;;16.20;62.47
51123;BME280;37162;41.724;13.346;2023-02-28T04:49:56;96484.59;;;16.18;62.54
51123;BME280;37162;41.724;13.346;2023-02-28T04:52:22;96478.94;;;16.15;62.70
51123;BME280;37162;41.724;13.346;2023-02-28T04:54:47;96483.78;;;16.18;62.39
51123;BME280;37162;41.724;13.346;2023-02-28T04:57:13;96484.84;;;16.17;62.78
51123;BME280;37162;41.724;13.346;2023-02-28T04:59:38;96467.25;;;16.09;62.73
51123;BME280;37162;41.724;13.346;2023-02-28T05:02:04;96492.09;;;16.16;62.56
51123;BME280;37162;41.724;13.346;2023-02-28T05:04:35;96479.38;;;16.12;62.48
51123;BME280;37162;41.724;13.346;2023-02-28T05:07:02;96488.84;;;16.14;62.67
51123;BME280;37162;41.724;13.346;2023-02-28T05:09:28;96486.16;;;16.14;62.54
51123;BME280;37162;41.724;13.346;2023-02-28T05:11:54;96483.69;;;16.13;62.56
51123;BME280;37162;41.724;13.346;2023-02-28T05:14:20;96490.66;;;16.14;62.60
51123;BME280;37162;41.724;13.346;2023-02-28T05:16:46;96485.56;;;16.12;62.38
51123;BME280;37162;41.724;13.346;2023-02-28T05:19:11;96496.03;;;16.14;62.58
51123;BME280;37162;41.724;13.346;2023-02-28T05:21:39;96484.28;;;16.15;62.54
51123;BME280;37162;41.724;13.346;2023-02-28T05:24:11;96490.47;;;16.15;62.51
51123;BME280;37162;41.724;13.346;2023-02-28T05:26:40;96485.91;;;16.16;62.75
51123;BME280;37162;41.724;13.346;2023-02-28T05:29:06;96489.66;;;16.15;62.96
51123;BME280;37162;41.724;13.346;2023-02-28T05:31:31;96486.72;;;16.16;63.03
51123;BME280;37162;41.724;13.346;2023-02-28T05:33:57;96485.31;;;16.14;63.01
51123;BME280;37162;41.724;13.346;2023-02-28T05:36:23;96498.25;;;16.17;63.02
51123;BME280;37162;41.724;13.346;2023-02-28T05:38:49;96493.94;;;16.16;62.60
51123;BME280;37162;41.724;13.346;2023-02-28T05:41:16;96503.63;;;16.17;62.55
51123;BME280;37162;41.724;13.346;2023-02-28T05:43:41;96477.66;;;16.05;62.46
51123;BME280;37162;41.724;13.346;2023-02-28T05:46:09;96505.47;;;16.16;62.52
51123;BME280;37162;41.724;13.346;2023-02-28T05:48:37;96507.09;;;16.17;62.40
51123;BME280;37162;41.724;13.346;2023-02-28T05:51:04;96506.28;;;16.17;62.35
51123;BME280;37162;41.724;13.346;2023-02-28T05:53:31;96508.16;;;16.16;62.50
51123;BME280;37162;41.724;13.346;2023-02-28T05:55:57;96508.16;;;16.16;62.60
51123;BME280;37162;41.724;13.346;2023-02-28T05:58:23;96517.00;;;16.17;62.49
51123;BME280;37162;41.724;13.346;2023-02-28T06:00:50;96510.28;;;16.14;62.43
51123;BME280;37162;41.724;13.346;2023-02-28T06:03:15;96511.09;;;16.15;62.51
51123;BME280;37162;41.724;13.346;2023-02-28T06:05:41;96513.75;;;16.15;62.35
51123;BME280;37162;41.724;13.346;2023-02-28T06:08:06;96511.09;;;16.15;62.43
51123;BME280;37162;41.724;13.346;2023-02-28T06:10:33;96504.19;;;16.07;62.41
51123;BME280;37162;41.724;13.346;2023-02-28T06:13:00;96516.66;;;16.13;62.46
51123;BME280;37162;41.724;13.346;2023-02-28T06:15:27;96517.97;;;16.10;62.43
51123;BME280;37162;41.724;13.346;2023-02-28T06:17:53;96520.41;;;16.12;62.58
51123;BME280;37162;41.724;13.346;2023-02-28T06:20:21;96526.56;;;16.13;62.52
51123;BME280;37162;41.724;13.346;2023-02-28T06:22:46;96517.47;;;16.14;62.30
51123;BME280;37162;41.724;13.346;2023-02-28T06:25:12;96524.69;;;16.13;62.44
51123;BME280;37162;41.724;13.346;2023-02-28T06:27:37;96534.41;;;16.14;62.56
51123;BME280;37162;41.724;13.346;2023-02-28T06:30:03;96529.03;;;16.14;62.56
51123;BME280;37162;41.724;13.346;2023-02-28T06:32:29;96532.53;;;16.15;62.56
51123;BME280;37162;41.724;13.346;2023-02-28T06:34:54;96534.16;;;16.16;62.47
51123;BME280;37162;41.724;13.346;2023-02-28T06:37:20;96533.34;;;16.15;62.40
51123;BME280;37162;41.724;13.346;2023-02-28T06:39:45;96532.53;;;16.15;62.27
51123;BME280;37162;41.724;13.346;2023-02-28T06:42:11;96537.06;;;16.14;62.47
51123;BME280;37162;41.724;13.346;2023-02-28T06:44:36;96538.69;;;16.15;62.38
51123;BME280;37162;41.724;13.346;2023-02-28T06:47:04;96537.06;;;16.14;62.46
51123;BME280;37162;41.724;13.346;2023-02-28T06:49:30;96537.06;;;16.14;62.47
51123;BME280;37162;41.724;13.346;2023-02-28T06:51:56;96532.72;;;16.13;62.44
51123;BME280;37162;41.724;13.346;2023-02-28T06:54:21;96537.88;;;16.15;62.40
51123;BME280;37162;41.724;13.346;2023-02-28T06:56:47;96534.41;;;16.14;62.28
51123;BME280;37162;41.724;13.346;2023-02-28T06:59:12;96538.69;;;16.15;62.15
51123;BME280;37162;41.724;13.346;2023-02-28T07:01:38;96522.16;;;16.06;62.41
51123;BME280;37162;41.724;13.346;2023-02-28T07:04:05;96541.38;;;16.15;62.16
51123;BME280;37162;41.724;13.346;2023-02-28T07:06:31;96527.16;;;16.15;62.08
51123;BME280;37162;41.724;13.346;2023-02-28T07:08:57;96539.75;;;16.14;62.29
51123;BME280;37162;41.724;13.346;2023-02-28T07:11:24;96523.31;;;16.10;62.24
51123;BME280;37162;41.724;13.346;2023-02-28T07:13:52;96539.50;;;16.16;62.25
51123;BME280;37162;41.724;13.346;2023-02-28T07:16:18;96535.66;;;16.12;62.23
51123;BME280;37162;41.724;13.346;2023-02-28T07:18:43;96527.97;;;16.15;62.22
51123;BME280;37162;41.724;13.346;2023-02-28T07:21:11;96528.44;;;16.12;62.21
51123;BME280;37162;41.724;13.346;2023-02-28T07:23:38;96534.16;;;16.16;62.06
51123;BME280;37162;41.724;13.346;2023-02-28T07:26:05;96522.50;;;16.10;62.11
51123;BME280;37162;41.724;13.346;2023-02-28T07:28:30;96526.69;;;16.18;62.07
51123;BME280;37162;41.724;13.346;2023-02-28T07:30:56;96516.19;;;16.16;62.12
51123;BME280;37162;41.724;13.346;2023-02-28T07:33:21;96523.78;;;16.19;62.06
51123;BME280;37162;41.724;13.346;2023-02-28T07:35:47;96519.25;;;16.20;61.97
51123;BME280;37162;41.724;13.346;2023-02-28T07:38:12;96516.56;;;16.20;61.98
51123;BME280;37162;41.724;13.346;2023-02-28T07:40:39;96517.38;;;16.20;61.93
51123;BME280;37162;41.724;13.346;2023-02-28T07:43:04;96509.31;;;16.20;61.97
51123;BME280;37162;41.724;13.346;2023-02-28T07:45:30;96514.44;;;16.22;61.98
51123;BME280;37162;41.724;13.346;2023-02-28T07:47:59;96508.50;;;16.20;62.06
51123;BME280;37162;41.724;13.346;2023-02-28T07:50:24;96510.94;;;16.21;62.04
51123;BME280;37162;41.724;13.346;2023-02-28T07:52:50;96516.06;;;16.23;62.01
51123;BME280;37162;41.724;13.346;2023-02-28T07:55:15;96520.63;;;16.22;61.86
51123;BME280;37162;41.724;13.346;2023-02-28T07:57:42;96523.28;;;16.22;61.99
51123;BME280;37162;41.724;13.346;2023-02-28T08:00:09;96524.13;;;16.23;61.92
51123;BME280;37162;41.724;13.346;2023-02-28T08:02:35;96521.66;;;16.21;61.92
51123;BME280;37162;41.724;13.346;2023-02-28T08:05:02;96505.72;;;16.15;61.79
51123;BME280;37162;41.724;13.346;2023-02-28T08:07:27;96522.72;;;16.20;62.02
51123;BME280;37162;41.724;13.346;2023-02-28T08:09:53;96531.59;;;16.21;61.88
51123;BME280;37162;41.724;13.346;2023-02-28T08:12:19;96518.19;;;16.21;61.99
51123;BME280;37162;41.724;13.346;2023-02-28T08:14:45;96517.38;;;16.20;61.72
51123;BME280;37162;41.724;13.346;2023-02-28T08:17:10;96513.63;;;16.21;61.99
51123;BME280;37162;41.724;13.346;2023-02-28T08:19:36;96521.09;;;16.19;62.09
51123;BME280;37162;41.724;13.346;2023-02-28T08:22:02;96518.44;;;16.19;62.09
51123;BME280;37162;41.724;13.346;2023-02-28T08:24:27;96520.03;;;16.20;62.29
51123;BME280;37162;41.724;13.346;2023-02-28T08:26:53;96513.53;;;16.16;62.24
51123;BME280;37162;41.724;13.346;2023-02-28T08:29:18;96515.75;;;16.19;62.46
51123;BME280;37162;41.724;13.346;2023-02-28T08:31:43;96523.78;;;16.19;62.39
51123;BME280;37162;41.724;13.346;2023-02-28T08:34:14;96503.50;;;16.12;62.22
51123;BME280;37162;41.724;13.346;2023-02-28T08:36:40;96517.81;;;16.17;62.28
51123;BME280;37162;41.724;13.346;2023-02-28T08:39:06;96517.81;;;16.17;62.35
51123;BME280;37162;41.724;13.346;2023-02-28T08:41:32;96499.41;;;16.09;62.14
51123;BME280;37162;41.724;13.346;2023-02-28T08:43:58;96494.66;;;16.11;62.00
51123;BME280;37162;41.724;13.346;2023-02-28T08:46:24;96506.53;;;16.15;62.24
51123;BME280;37162;41.724;13.346;2023-02-28T08:48:56;96512.47;;;16.17;62.09
51123;BME280;37162;41.724;13.346;2023-02-28T08:51:25;96512.72;;;16.16;61.83
51123;BME280;37162;41.724;13.346;2023-02-28T08:53:56;96510.28;;;16.14;60.78
51123;BME280;37162;41.724;13.346;2023-02-28T08:56:22;96514.47;;;16.10;59.19
51123;BME280;37162;41.724;13.346;2023-02-28T08:58:49;96511.19;;;16.08;58.74
51123;BME280;37162;41.724;13.346;2023-02-28T09:01:20;96511.66;;;16.05;58.36
51123;BME280;37162;41.724;13.346;2023-02-28T09:03:47;96514.22;;;16.00;57.65
51123;BME280;37162;41.724;13.346;2023-02-28T09:06:14;96517.38;;;15.97;57.21
51123;BME280;37162;41.724;13.346;2023-02-28T09:08:41;96520.97;;;15.91;57.13
51123;BME280;37162;41.724;13.346;2023-02-28T09:11:07;96519.81;;;15.87;57.56
51123;BME280;37162;41.724;13.346;2023-02-28T09:13:32;96500.94;;;15.81;57.72
51123;BME280;37162;41.724;13.346;2023-02-28T09:15:59;96524.22;;;15.93;57.94
51123;BME280;37162;41.724;13.346;2023-02-28T09:18:26;96513.50;;;15.93;57.65
51123;BME280;37162;41.724;13.346;2023-02-28T09:20:51;96517.81;;;15.94;57.64
51123;BME280;37162;41.724;13.346;2023-02-28T09:23:17;96506.06;;;15.95;57.12
51123;BME280;37162;41.724;13.346;2023-02-28T09:28:12;96507.34;;;15.92;57.28
51123;BME280;37162;41.724;13.346;2023-02-28T09:30:40;96497.91;;;15.90;56.81
51123;BME280;37162;41.724;13.346;2023-02-28T09:33:06;96500.38;;;15.91;56.73
51123;BME280;37162;41.724;13.346;2023-02-28T09:35:31;96496.03;;;15.90;56.62
51123;BME280;37162;41.724;13.346;2023-02-28T09:37:56;96498.94;;;15.89;56.16
51123;BME280;37162;41.724;13.346;2023-02-28T09:40:24;96490.91;;;15.89;56.44
51123;BME280;37162;41.724;13.346;2023-02-28T09:42:52;96494.19;;;15.91;57.15
51123;BME280;37162;41.724;13.346;2023-02-28T09:45:36;96496.03;;;15.90;56.66
51123;BME280;37162;41.724;13.346;2023-02-28T09:48:18;96490.91;;;15.89;56.48
51123;BME280;37162;41.724;13.346;2023-02-28T09:50:48;96492.41;;;15.84;56.63
51123;BME280;37162;41.724;13.346;2023-02-28T09:53:29;96485.00;;;15.87;57.13
51123;BME280;37162;41.724;13.346;2023-02-28T10:07:03;96498.03;;;15.83;59.32
51123;BME280;37162;41.724;13.346;2023-02-28T10:09:33;96505.47;;;15.93;60.09
51123;BME280;37162;41.724;13.346;2023-02-28T10:12:04;96512.72;;;15.92;59.13
51123;BME280;37162;41.724;13.346;2023-02-28T10:14:32;96516.44;;;15.91;58.78
51123;BME280;37162;41.724;13.346;2023-02-28T10:17:05;96525.28;;;15.92;57.70
51123;BME280;37162;41.724;13.346;2023-02-28T10:22:12;96524.09;;;15.99;57.30
51123;BME280;37162;41.724;13.346;2023-02-28T10:24:44;96518.41;;;16.07;56.94
51123;BME280;37162;41.724;13.346;2023-02-28T10:29:43;96514.69;;;15.97;56.11
51123;BME280;37162;41.724;13.346;2023-02-28T10:32:12;96521.56;;;16.04;55.86
51123;BME280;37162;41.724;13.346;2023-02-28T10:34:39;96517.16;;;16.10;55.22
51123;BME280;37162;41.724;13.346;2023-02-28T10:37:05;96521.31;;;16.18;55.40
51123;BME280;37162;41.724;13.346;2023-02-28T10:39:44;96510.50;;;16.24;55.64
51123;BME280;37162;41.724;13.346;2023-02-28T10:42:28;96501.03;;;16.22;55.37
51123;BME280;37162;41.724;13.346;2023-02-28T10:45:16;96495.44;;;16.35;55.14
51123;BME280;37162;41.724;13.346;2023-02-28T10:47:57;96490.63;;;16.49;56.16
51123;BME280;37162;41.724;13.346;2023-02-28T10:52:53;96496.34;;;16.52;54.87
51123;BME280;37162;41.724;13.346;2023-02-28T10:55:24;96479.91;;;16.49;54.95
51123;BME280;37162;41.724;13.346;2023-02-28T10:57:51;96472.06;;;16.59;56.80
51123;BME280;37162;41.724;13.346;2023-02-28T11:00:21;96467.88;;;16.63;53.88
51123;BME280;37162;41.724;13.346;2023-02-28T11:02:47;96457.22;;;16.68;53.79
51123;BME280;37162;41.724;13.346;2023-02-28T11:07:54;96450.59;;;16.71;51.80
51123;BME280;37162;41.724;13.346;2023-02-28T11:10:25;96451.41;;;16.71;51.11
51123;BME280;37162;41.724;13.346;2023-02-28T11:12:55;96448.84;;;16.76;53.48
51123;BME280;37162;41.724;13.346;2023-02-28T11:15:24;96436.59;;;16.69;52.34
51123;BME280;37162;41.724;13.346;2023-02-28T11:18:24;96443.25;;;16.66;52.83
51123;BME280;37162;41.724;13.346;2023-02-28T11:20:54;96437.91;;;16.66;53.41
51123;BME280;37162;41.724;13.346;2023-02-28T11:23:21;96434.97;;;16.68;54.35
51123;BME280;37162;41.724;13.346;2023-02-28T11:25:54;96440.91;;;16.70;55.00
51123;BME280;37162;41.724;13.346;2023-02-28T11:28:36;96426.91;;;16.68;55.40
51123;BME280;37162;41.724;13.346;2023-02-28T11:38:46;96442.09;;;16.62;55.00
51123;BME280;37162;41.724;13.346;2023-02-28T11:44:18;96434.28;;;16.60;55.64
51123;BME280;37162;41.724;13.346;2023-02-28T11:47:37;96435.34;;;16.59;55.81
51123;BME280;37162;41.724;13.346;2023-02-28T11:55:28;96426.94;;;16.56;56.29
51123;BME280;37162;41.724;13.346;2023-02-28T12:01:12;96421.81;;;16.54;56.67
51123;BME280;37162;41.724;13.346;2023-02-28T12:03:27;96424.16;;;16.51;56.76
51123;BME280;37162;41.724;13.346;2023-02-28T12:11:48;96423.16;;;16.40;56.92
51123;BME280;37162;41.724;13.346;2023-02-28T12:25:21;96436.91;;;16.32;57.96
51123;BME280;37162;41.724;13.346;2023-02-28T12:27:48;96438.78;;;16.31;58.23
51123;BME280;37162;41.724;13.346;2023-02-28T12:30:21;96436.81;;;16.27;58.06
51123;BME280;37162;41.724;13.346;2023-02-28T12:33:12;96447.31;;;16.28;58.49
51123;BME280;37162;41.724;13.346;2023-02-28T12:35:57;96440.69;;;16.19;58.70
51123;BME280;37162;41.724;13.346;2023-02-28T12:38:40;96452.34;;;16.25;58.93
51123;BME280;37162;41.724;13.346;2023-02-28T12:41:33;96449.91;;;16.23;59.05
51123;BME280;37162;41.724;13.346;2023-02-28T12:44:12;96455.47;;;16.22;58.87
51123;BME280;37162;41.724;13.346;2023-02-28T12:46:45;96434.63;;;16.12;58.82
51123;BME280;37162;41.724;13.346;2023-02-28T12:49:47;96448.75;;;16.19;58.64
51123;BME280;37162;41.724;13.346;2023-02-28T12:52:18;96447.94;;;16.19;58.73
51123;BME280;37162;41.724;13.346;2023-02-28T12:57:50;96441.41;;;16.15;58.99
51123;BME280;37162;41.724;13.346;2023-02-28T13:00:21;96442.09;;;16.10;59.15
51123;BME280;37162;41.724;13.346;2023-02-28T13:06:03;96438.38;;;16.11;59.13
51123;BME280;37162;41.724;13.346;2023-02-28T13:11:25;96443.97;;;16.09;59.35
51123;BME280;37162;41.724;13.346;2023-02-28T13:14:01;96432.66;;;16.07;59.30
51123;BME280;37162;41.724;13.346;2023-02-28T13:16:27;96423.81;;;16.07;59.57
51123;BME280;37162;41.724;13.346;2023-02-28T13:19:08;96428.34;;;16.06;59.58
51123;BME280;37162;41.724;13.346;2023-02-28T13:21:42;96417.63;;;16.06;59.60
51123;BME280;37162;41.724;13.346;2023-02-28T13:24:08;96408.44;;;16.02;59.52
51123;BME280;37162;41.724;13.346;2023-02-28T13:29:32;96405.28;;;16.05;59.96
51123;BME280;37162;41.724;13.346;2023-02-28T13:34:27;96386.75;;;16.04;60.31
51123;BME280;37162;41.724;13.346;2023-02-28T13:42:34;96382.25;;;16.04;60.63
51123;BME280;37162;41.724;13.346;2023-02-28T13:47:44;96390.28;;;16.04;60.46
51123;BME280;37162;41.724;13.346;2023-02-28T14:03:22;96392.47;;;16.07;60.97
51123;BME280;37162;41.724;13.346;2023-02-28T14:06:31;96391.66;;;16.07;60.64
51123;BME280;37162;41.724;13.346;2023-02-28T14:09:02;96387.91;;;16.08;60.80
51123;BME280;37162;41.724;13.346;2023-02-28T14:11:34;96393.28;;;16.08;60.71
51123;BME280;37162;41.724;13.346;2023-02-28T14:14:01;96393.28;;;16.08;60.88
51123;BME280;37162;41.724;13.346;2023-02-28T14:16:41;96394.09;;;16.08;60.87
51123;BME280;37162;41.724;13.346;2023-02-28T14:19:27;96402.13;;;16.08;60.96
51123;BME280;37162;41.724;13.346;2023-02-28T14:30:11;96424.16;;;16.10;61.78
51123;BME280;37162;41.724;13.346;2023-02-28T14:33:33;96447.22;;;16.12;61.99
51123;BME280;37162;41.724;13.346;2023-02-28T14:36:09;96453.41;;;16.12;61.99
51123;BME280;37162;41.724;13.346;2023-02-28T14:38:48;96453.28;;;16.07;62.23
51123;BME280;37162;41.724;13.346;2023-02-28T14:41:32;96472.16;;;16.12;62.23
51123;BME280;37162;41.724;13.346;2023-02-28T14:46:44;96480.19;;;16.12;62.17
51123;BME280;37162;41.724;13.346;2023-02-28T14:49:28;96489.28;;;16.11;61.80
51123;BME280;37162;41.724;13.346;2023-02-28T14:52:21;96492.78;;;16.12;61.79
51123;BME280;37162;41.724;13.346;2023-02-28T15:02:41;96490.34;;;16.10;61.90
51123;BME280;37162;41.724;13.346;2023-02-28T15:07:42;96474.25;;;16.10;61.86
51123;BME280;37162;41.724;13.346;2023-02-28T15:10:25;96462.84;;;16.03;61.98
51123;BME280;37162;41.724;13.346;2023-02-28T15:13:00;96467.03;;;16.10;61.84
51123;BME280;37162;41.724;13.346;2023-02-28T15:15:52;96461.69;;;16.10;61.90
51123;BME280;37162;41.724;13.346;2023-02-28T15:18:36;96469.72;;;16.10;61.94
51123;BME280;37162;41.724;13.346;2023-02-28T15:21:12;96457.13;;;16.11;61.99
51123;BME280;37162;41.724;13.346;2023-02-28T15:23:40;96454.69;;;16.09;62.01
51123;BME280;37162;41.724;13.346;2023-02-28T15:26:13;96455.50;;;16.10;61.86
51123;BME280;37162;41.724;13.346;2023-02-28T15:28:40;96456.44;;;16.04;62.00
51123;BME280;37162;41.724;13.346;2023-02-28T15:31:26;96465.97;;;16.12;62.01
51123;BME280;37162;41.724;13.346;2023-02-28T15:33:55;96463.31;;;16.12;62.04
51123;BME280;37162;41.724;13.346;2023-02-28T15:36:24;96462.50;;;16.11;62.32
51123;BME280;37162;41.724;13.346;2023-02-28T15:38:53;96464.94;;;16.13;62.35